EZY556 EDDL-LSZH
Flight info
| Callsign | EZY556 |
|---|---|
| Flight time | 0h 56m |
| Altitude | 31000 |
| Route | DODEN1T DODEN Y852 TUSUK DCT ULNOK L607 SUNEG T721 RILAX |
| Aircraft | A320/M-SDE3FGHIRWY/LB1 |
Departure
| Time | 2026-02-22 04:45 |
|---|---|
| Airport | Düsseldorf Airport (EDDL) |
Arrival
| Time | 2026-02-22 05:41 |
|---|---|
| Airport | Zürich Airport (LSZH) |
| Time | Latitude | Longitude | Altitude | Speed | Heading |
|---|---|---|---|---|---|
| 2026-02-22 04:31 | 51.28067 | 6.76539 | 129 ft | 0 kts | 97° |
| 2026-02-22 04:34 | 51.28068 | 6.76533 | 126 ft | 2 kts | 96° |
| 2026-02-22 04:34 | 51.28069 | 6.76503 | 129 ft | 3 kts | 86° |
| 2026-02-22 04:34 | 51.28066 | 6.76474 | 126 ft | 3 kts | 57° |
| 2026-02-22 04:35 | 51.28058 | 6.76458 | 125 ft | 3 kts | 349° |
| 2026-02-22 04:35 | 51.28053 | 6.76460 | 125 ft | 0 kts | 327° |
| 2026-02-22 04:39 | 51.28134 | 6.76386 | 128 ft | 30 kts | 335° |
| 2026-02-22 04:39 | 51.28310 | 6.76501 | 127 ft | 29 kts | 28° |
| 2026-02-22 04:39 | 51.28456 | 6.76708 | 126 ft | 27 kts | 53° |
| 2026-02-22 04:40 | 51.28557 | 6.76921 | 126 ft | 22 kts | 52° |
| 2026-02-22 04:40 | 51.28643 | 6.77100 | 127 ft | 19 kts | 52° |
| 2026-02-22 04:40 | 51.28719 | 6.77255 | 126 ft | 17 kts | 52° |
| 2026-02-22 04:40 | 51.28785 | 6.77392 | 127 ft | 15 kts | 53° |
| 2026-02-22 04:41 | 51.28851 | 6.77533 | 127 ft | 15 kts | 53° |
| 2026-02-22 04:41 | 51.28906 | 6.77649 | 128 ft | 11 kts | 53° |
| 2026-02-22 04:41 | 51.28940 | 6.77721 | 127 ft | 5 kts | 53° |
| 2026-02-22 04:41 | 51.28956 | 6.77754 | 126 ft | 6 kts | 53° |
| 2026-02-22 04:42 | 51.29044 | 6.77933 | 128 ft | 24 kts | 51° |
| 2026-02-22 04:42 | 51.29135 | 6.78127 | 134 ft | 19 kts | 53° |
| 2026-02-22 04:42 | 51.29211 | 6.78266 | 139 ft | 14 kts | 42° |
| 2026-02-22 04:42 | 51.29265 | 6.78336 | 142 ft | 8 kts | 35° |
| 2026-02-22 04:43 | 51.29291 | 6.78365 | 143 ft | 1 kts | 35° |
| 2026-02-22 04:43 | 51.29392 | 6.78468 | 149 ft | 31 kts | 28° |
| 2026-02-22 04:44 | 51.29491 | 6.78391 | 149 ft | 3 kts | 265° |
| 2026-02-22 04:44 | 51.29460 | 6.78328 | 148 ft | 29 kts | 232° |
| 2026-02-22 04:44 | 51.29179 | 6.77735 | 135 ft | 101 kts | 233° |
| 2026-02-22 04:44 | 51.28643 | 6.76585 | 132 ft | 154 kts | 233° |
| 2026-02-22 04:45 | 51.27908 | 6.75075 | 301 ft | 185 kts | 233° |
| 2026-02-22 04:45 | 51.27134 | 6.73342 | 882 ft | 197 kts | 236° |
| 2026-02-22 04:45 | 51.26350 | 6.71492 | 1451 ft | 213 kts | 234° |
| 2026-02-22 04:45 | 51.25411 | 6.69455 | 1872 ft | 237 kts | 233° |
| 2026-02-22 04:46 | 51.24377 | 6.67291 | 2418 ft | 255 kts | 232° |
| 2026-02-22 04:46 | 51.23249 | 6.65056 | 3261 ft | 261 kts | 225° |
| 2026-02-22 04:46 | 51.21672 | 6.63652 | 4103 ft | 266 kts | 191° |
| 2026-02-22 04:46 | 51.19812 | 6.63658 | 4985 ft | 269 kts | 174° |
| 2026-02-22 04:47 | 51.17945 | 6.63957 | 5883 ft | 271 kts | 174° |
| 2026-02-22 04:47 | 51.16069 | 6.64415 | 6723 ft | 275 kts | 162° |
| 2026-02-22 04:47 | 51.14417 | 6.65949 | 7517 ft | 279 kts | 135° |
| 2026-02-22 04:47 | 51.13348 | 6.68528 | 8338 ft | 283 kts | 109° |
| 2026-02-22 04:48 | 51.13101 | 6.71630 | 9133 ft | 286 kts | 86° |
| 2026-02-22 04:48 | 51.13218 | 6.74771 | 9931 ft | 289 kts | 86° |
| 2026-02-22 04:48 | 51.13352 | 6.78068 | 10430 ft | 306 kts | 86° |
| 2026-02-22 04:48 | 51.13495 | 6.81528 | 10643 ft | 329 kts | 86° |
| 2026-02-22 04:49 | 51.13648 | 6.85278 | 10911 ft | 348 kts | 86° |
| 2026-02-22 04:49 | 51.13800 | 6.89178 | 11510 ft | 355 kts | 86° |
| 2026-02-22 04:49 | 51.13949 | 6.93128 | 12195 ft | 359 kts | 86° |
| 2026-02-22 04:49 | 51.14095 | 6.97121 | 12871 ft | 363 kts | 86° |
| 2026-02-22 04:50 | 51.14237 | 7.01153 | 13539 ft | 367 kts | 86° |
| 2026-02-22 04:50 | 51.14381 | 7.05224 | 14182 ft | 371 kts | 86° |
| 2026-02-22 04:50 | 51.14526 | 7.09353 | 14813 ft | 374 kts | 86° |
| 2026-02-22 04:50 | 51.14671 | 7.13513 | 15425 ft | 378 kts | 87° |
| 2026-02-22 04:51 | 51.14816 | 7.17705 | 16023 ft | 381 kts | 86° |
| 2026-02-22 04:51 | 51.14963 | 7.21936 | 16598 ft | 384 kts | 87° |
| 2026-02-22 04:51 | 51.15107 | 7.26212 | 17154 ft | 388 kts | 87° |
| 2026-02-22 04:51 | 51.15249 | 7.30528 | 17699 ft | 391 kts | 87° |
| 2026-02-22 04:52 | 51.15234 | 7.39196 | 18726 ft | 397 kts | 99° |
| 2026-02-22 04:52 | 51.14526 | 7.43462 | 19220 ft | 401 kts | 111° |
| 2026-02-22 04:52 | 51.13288 | 7.47443 | 19712 ft | 404 kts | 122° |
| 2026-02-22 04:53 | 51.11556 | 7.50976 | 20191 ft | 406 kts | 134° |
| 2026-02-22 04:53 | 51.09517 | 7.54111 | 20666 ft | 409 kts | 136° |
| 2026-02-22 04:53 | 51.07454 | 7.57249 | 21114 ft | 412 kts | 136° |
| 2026-02-22 04:53 | 51.05376 | 7.60412 | 21562 ft | 415 kts | 136° |
| 2026-02-22 04:54 | 51.03287 | 7.63590 | 22000 ft | 417 kts | 136° |
| 2026-02-22 04:54 | 51.01180 | 7.66793 | 22438 ft | 420 kts | 136° |
| 2026-02-22 04:54 | 50.99063 | 7.70008 | 22852 ft | 423 kts | 136° |
| 2026-02-22 04:54 | 50.96892 | 7.73173 | 23244 ft | 425 kts | 141° |
| 2026-02-22 04:55 | 50.94456 | 7.75858 | 23629 ft | 428 kts | 148° |
| 2026-02-22 04:55 | 50.91916 | 7.78357 | 24012 ft | 430 kts | 148° |
| 2026-02-22 04:55 | 50.89366 | 7.80861 | 24395 ft | 433 kts | 148° |
| 2026-02-22 04:55 | 50.86801 | 7.83375 | 24765 ft | 435 kts | 148° |
| 2026-02-22 04:56 | 50.84221 | 7.85903 | 25117 ft | 437 kts | 148° |
| 2026-02-22 04:56 | 50.81630 | 7.88442 | 25469 ft | 439 kts | 148° |
| 2026-02-22 04:56 | 50.79021 | 7.90998 | 25819 ft | 442 kts | 148° |
| 2026-02-22 04:56 | 50.76403 | 7.93559 | 26144 ft | 444 kts | 148° |
| 2026-02-22 04:57 | 50.73765 | 7.96136 | 26472 ft | 446 kts | 148° |
| 2026-02-22 04:57 | 50.71114 | 7.98725 | 26788 ft | 449 kts | 148° |
| 2026-02-22 04:57 | 50.68452 | 8.01320 | 27080 ft | 451 kts | 148° |
| 2026-02-22 04:57 | 50.65770 | 8.03925 | 27368 ft | 454 kts | 148° |
| 2026-02-22 04:58 | 50.63051 | 8.06468 | 27662 ft | 456 kts | 153° |
| 2026-02-22 04:58 | 50.60128 | 8.08431 | 27941 ft | 457 kts | 162° |
| 2026-02-22 04:58 | 50.57040 | 8.09639 | 28215 ft | 459 kts | 171° |
| 2026-02-22 04:58 | 50.53858 | 8.10159 | 28495 ft | 461 kts | 175° |
| 2026-02-22 04:59 | 50.50652 | 8.10570 | 28766 ft | 462 kts | 175° |
| 2026-02-22 04:59 | 50.47439 | 8.10986 | 29032 ft | 464 kts | 175° |
| 2026-02-22 04:59 | 50.44221 | 8.11411 | 29341 ft | 464 kts | 175° |
| 2026-02-22 04:59 | 50.41014 | 8.11837 | 29721 ft | 462 kts | 175° |
| 2026-02-22 05:00 | 50.37807 | 8.12261 | 30090 ft | 461 kts | 175° |
| 2026-02-22 05:00 | 50.34613 | 8.12676 | 30439 ft | 461 kts | 175° |
| 2026-02-22 05:00 | 50.31409 | 8.13087 | 30771 ft | 460 kts | 175° |
| 2026-02-22 05:00 | 50.28257 | 8.13496 | 30970 ft | 461 kts | 175° |
| 2026-02-22 05:01 | 50.25024 | 8.13916 | 31011 ft | 460 kts | 175° |
| 2026-02-22 05:01 | 50.20199 | 8.14548 | 31009 ft | 0 kts | 175° |
| 2026-02-22 05:01 | 50.18620 | 8.14728 | 31067 ft | 460 kts | 175° |
| 2026-02-22 05:02 | 50.15458 | 8.15423 | 31001 ft | 459 kts | 166° |
| 2026-02-22 05:02 | 50.09556 | 8.19124 | 31009 ft | 458 kts | 149° |
| 2026-02-22 05:03 | 50.04093 | 8.24229 | 31009 ft | 457 kts | 149° |
| 2026-02-22 05:03 | 49.98618 | 8.29269 | 31009 ft | 457 kts | 149° |
| 2026-02-22 05:04 | 49.93141 | 8.34298 | 31010 ft | 457 kts | 149° |
| 2026-02-22 05:04 | 49.87662 | 8.39321 | 31011 ft | 457 kts | 149° |
| 2026-02-22 05:05 | 49.82594 | 8.45215 | 31010 ft | 457 kts | 136° |
| 2026-02-22 05:05 | 49.78005 | 8.51926 | 31009 ft | 457 kts | 136° |
| 2026-02-22 05:06 | 49.73152 | 8.58245 | 31008 ft | 457 kts | 148° |
| 2026-02-22 05:06 | 49.67331 | 8.62068 | 31006 ft | 456 kts | 167° |
| 2026-02-22 05:07 | 49.61090 | 8.63863 | 31004 ft | 456 kts | 170° |
| 2026-02-22 05:07 | 49.54840 | 8.65603 | 31003 ft | 457 kts | 169° |
| 2026-02-22 05:08 | 49.48585 | 8.67350 | 31000 ft | 457 kts | 168° |
| 2026-02-22 05:08 | 49.42614 | 8.70638 | 31003 ft | 457 kts | 155° |
| 2026-02-22 05:09 | 49.37798 | 8.73994 | 30996 ft | 458 kts | 155° |
| 2026-02-22 05:09 | 49.31993 | 8.78019 | 30997 ft | 458 kts | 155° |
| 2026-02-22 05:10 | 49.26186 | 8.82047 | 31004 ft | 458 kts | 155° |
| 2026-02-22 05:10 | 49.20137 | 8.84951 | 31005 ft | 457 kts | 172° |
| 2026-02-22 05:11 | 49.13806 | 8.84771 | 31003 ft | 457 kts | 190° |
| 2026-02-22 05:11 | 49.07549 | 8.83039 | 31001 ft | 457 kts | 190° |
| 2026-02-22 05:12 | 49.01285 | 8.81336 | 31000 ft | 457 kts | 190° |
| 2026-02-22 05:12 | 48.95011 | 8.79635 | 31001 ft | 458 kts | 190° |
| 2026-02-22 05:13 | 48.88738 | 8.77950 | 31001 ft | 458 kts | 190° |
| 2026-02-22 05:13 | 48.82503 | 8.76283 | 30996 ft | 458 kts | 190° |
| 2026-02-22 05:14 | 48.76215 | 8.74601 | 30997 ft | 459 kts | 190° |
| 2026-02-22 05:14 | 48.69928 | 8.72915 | 30998 ft | 459 kts | 190° |
| 2026-02-22 05:15 | 48.63636 | 8.71236 | 31000 ft | 459 kts | 190° |
| 2026-02-22 05:15 | 48.57340 | 8.69566 | 31001 ft | 459 kts | 190° |
| 2026-02-22 05:16 | 48.51048 | 8.67898 | 31001 ft | 459 kts | 190° |
| 2026-02-22 05:16 | 48.44753 | 8.66229 | 31001 ft | 459 kts | 190° |
| 2026-02-22 05:17 | 48.38614 | 8.64612 | 31003 ft | 459 kts | 190° |
| 2026-02-22 05:17 | 48.32372 | 8.62836 | 30875 ft | 459 kts | 191° |
| 2026-02-22 05:17 | 48.29234 | 8.61866 | 30619 ft | 460 kts | 192° |
| 2026-02-22 05:18 | 48.26098 | 8.60884 | 29672 ft | 463 kts | 192° |
| 2026-02-22 05:18 | 48.22911 | 8.59890 | 28429 ft | 472 kts | 192° |
| 2026-02-22 05:18 | 48.19674 | 8.58890 | 27291 ft | 477 kts | 192° |
| 2026-02-22 05:18 | 48.16450 | 8.57905 | 26663 ft | 469 kts | 191° |
| 2026-02-22 05:19 | 48.13260 | 8.56952 | 25868 ft | 465 kts | 191° |
| 2026-02-22 05:19 | 48.10104 | 8.56026 | 25124 ft | 460 kts | 191° |
| 2026-02-22 05:19 | 48.06975 | 8.55114 | 24388 ft | 455 kts | 191° |
| 2026-02-22 05:19 | 48.03882 | 8.54207 | 23654 ft | 451 kts | 191° |
| 2026-02-22 05:20 | 48.00818 | 8.53319 | 22944 ft | 447 kts | 189° |
| 2026-02-22 05:20 | 47.97727 | 8.53011 | 22258 ft | 442 kts | 178° |
| 2026-02-22 05:20 | 47.94706 | 8.53636 | 21599 ft | 438 kts | 166° |
| 2026-02-22 05:20 | 47.91856 | 8.55152 | 20968 ft | 433 kts | 154° |
| 2026-02-22 05:21 | 47.89304 | 8.57457 | 20369 ft | 427 kts | 142° |
| 2026-02-22 05:21 | 47.87011 | 8.60230 | 19786 ft | 422 kts | 140° |
| 2026-02-22 05:21 | 47.84757 | 8.62983 | 19233 ft | 416 kts | 140° |
| 2026-02-22 05:21 | 47.82527 | 8.65700 | 18694 ft | 411 kts | 141° |
| 2026-02-22 05:22 | 47.80359 | 8.68333 | 18208 ft | 405 kts | 141° |
| 2026-02-22 05:22 | 47.78186 | 8.70958 | 17693 ft | 400 kts | 141° |
| 2026-02-22 05:22 | 47.76038 | 8.73547 | 17190 ft | 395 kts | 141° |
| 2026-02-22 05:22 | 47.73916 | 8.76100 | 16684 ft | 390 kts | 141° |
| 2026-02-22 05:23 | 47.71818 | 8.78629 | 16162 ft | 387 kts | 141° |
| 2026-02-22 05:23 | 47.69736 | 8.81139 | 15647 ft | 384 kts | 141° |
| 2026-02-22 05:23 | 47.67667 | 8.83634 | 15112 ft | 381 kts | 141° |
| 2026-02-22 05:23 | 47.65613 | 8.86107 | 14572 ft | 379 kts | 141° |
| 2026-02-22 05:24 | 47.63594 | 8.88593 | 14019 ft | 377 kts | 137° |
| 2026-02-22 05:24 | 47.61856 | 8.91483 | 13449 ft | 375 kts | 126° |
| 2026-02-22 05:24 | 47.60518 | 8.94783 | 12896 ft | 372 kts | 117° |
| 2026-02-22 05:24 | 47.59357 | 8.98190 | 12315 ft | 370 kts | 116° |
| 2026-02-22 05:25 | 47.58016 | 9.01426 | 11735 ft | 367 kts | 126° |
| 2026-02-22 05:25 | 47.56720 | 9.04658 | 11157 ft | 364 kts | 110° |
| 2026-02-22 05:25 | 47.56248 | 9.08301 | 10585 ft | 361 kts | 90° |
| 2026-02-22 05:25 | 47.56692 | 9.11922 | 10014 ft | 357 kts | 68° |
| 2026-02-22 05:26 | 47.57982 | 9.15020 | 9427 ft | 354 kts | 47° |
| 2026-02-22 05:26 | 47.59911 | 9.17118 | 9013 ft | 334 kts | 22° |
| 2026-02-22 05:26 | 47.62058 | 9.17806 | 9002 ft | 303 kts | 358° |
| 2026-02-22 05:26 | 47.64032 | 9.17131 | 8998 ft | 288 kts | 332° |
| 2026-02-22 05:27 | 47.65572 | 9.15288 | 8999 ft | 286 kts | 310° |
| 2026-02-22 05:27 | 47.66891 | 9.13063 | 8809 ft | 287 kts | 311° |
| 2026-02-22 05:27 | 47.68212 | 9.10882 | 8256 ft | 282 kts | 312° |
| 2026-02-22 05:27 | 47.69509 | 9.08743 | 8047 ft | 280 kts | 312° |
| 2026-02-22 05:28 | 47.70817 | 9.06583 | 7698 ft | 281 kts | 312° |
| 2026-02-22 05:28 | 47.72120 | 9.04427 | 7346 ft | 281 kts | 312° |
| 2026-02-22 05:28 | 47.73406 | 9.02299 | 6994 ft | 279 kts | 312° |
| 2026-02-22 05:28 | 47.74696 | 9.00163 | 6649 ft | 277 kts | 312° |
| 2026-02-22 05:29 | 47.75978 | 8.98038 | 6295 ft | 275 kts | 312° |
| 2026-02-22 05:29 | 47.77252 | 8.95927 | 5940 ft | 274 kts | 312° |
| 2026-02-22 05:29 | 47.78521 | 8.93823 | 5600 ft | 272 kts | 312° |
| 2026-02-22 05:29 | 47.79781 | 8.91732 | 5243 ft | 271 kts | 312° |
| 2026-02-22 05:30 | 47.81034 | 8.89652 | 5016 ft | 269 kts | 311° |
| 2026-02-22 05:30 | 47.82282 | 8.87580 | 5014 ft | 270 kts | 312° |
| 2026-02-22 05:30 | 47.83534 | 8.85499 | 5014 ft | 270 kts | 311° |
| 2026-02-22 05:30 | 47.84788 | 8.83416 | 5016 ft | 270 kts | 311° |
| 2026-02-22 05:31 | 47.85807 | 8.81081 | 5011 ft | 270 kts | 291° |
| 2026-02-22 05:31 | 47.86135 | 8.78369 | 4680 ft | 267 kts | 266° |
| 2026-02-22 05:31 | 47.85666 | 8.75731 | 4257 ft | 265 kts | 242° |
| 2026-02-22 05:31 | 47.84531 | 8.73605 | 4019 ft | 264 kts | 225° |
| 2026-02-22 05:32 | 47.83233 | 8.71655 | 4017 ft | 266 kts | 225° |
| 2026-02-22 05:32 | 47.81939 | 8.69679 | 4017 ft | 267 kts | 226° |
| 2026-02-22 05:32 | 47.80651 | 8.67693 | 4009 ft | 267 kts | 226° |
| 2026-02-22 05:32 | 47.79363 | 8.65704 | 4016 ft | 267 kts | 226° |
| 2026-02-22 05:33 | 47.78073 | 8.63719 | 4017 ft | 267 kts | 226° |
| 2026-02-22 05:33 | 47.76780 | 8.61735 | 4016 ft | 267 kts | 226° |
| 2026-02-22 05:33 | 47.75505 | 8.59782 | 4016 ft | 267 kts | 226° |
| 2026-02-22 05:33 | 47.74209 | 8.57803 | 4017 ft | 267 kts | 226° |
| 2026-02-22 05:34 | 47.72914 | 8.55830 | 4016 ft | 267 kts | 226° |
| 2026-02-22 05:34 | 47.71616 | 8.53852 | 4016 ft | 267 kts | 226° |
| 2026-02-22 05:34 | 47.70320 | 8.51877 | 4013 ft | 267 kts | 226° |
| 2026-02-22 05:34 | 47.69029 | 8.49912 | 4004 ft | 263 kts | 226° |
| 2026-02-22 05:35 | 47.67815 | 8.48065 | 4007 ft | 236 kts | 226° |
| 2026-02-22 05:35 | 47.66719 | 8.46400 | 4011 ft | 216 kts | 225° |
| 2026-02-22 05:35 | 47.65690 | 8.44842 | 4017 ft | 208 kts | 225° |
| 2026-02-22 05:35 | 47.64687 | 8.43323 | 4018 ft | 205 kts | 225° |
| 2026-02-22 05:36 | 47.63745 | 8.41894 | 4026 ft | 182 kts | 225° |
| 2026-02-22 05:36 | 47.62894 | 8.40602 | 4006 ft | 170 kts | 226° |
| 2026-02-22 05:36 | 47.62081 | 8.39366 | 4021 ft | 165 kts | 225° |
| 2026-02-22 05:36 | 47.61184 | 8.38396 | 4022 ft | 159 kts | 201° |
| 2026-02-22 05:37 | 47.60107 | 8.38179 | 4020 ft | 155 kts | 172° |
| 2026-02-22 05:37 | 47.59130 | 8.38702 | 4022 ft | 151 kts | 146° |
| 2026-02-22 05:37 | 47.58347 | 8.39721 | 3993 ft | 150 kts | 137° |
| 2026-02-22 05:37 | 47.57584 | 8.40765 | 3863 ft | 149 kts | 137° |
| 2026-02-22 05:38 | 47.56825 | 8.41804 | 3690 ft | 148 kts | 137° |
| 2026-02-22 05:38 | 47.56068 | 8.42841 | 3507 ft | 148 kts | 137° |
| 2026-02-22 05:38 | 47.55318 | 8.43870 | 3313 ft | 147 kts | 137° |
| 2026-02-22 05:38 | 47.54567 | 8.44899 | 3119 ft | 147 kts | 137° |
| 2026-02-22 05:39 | 47.53820 | 8.45924 | 2925 ft | 146 kts | 137° |
| 2026-02-22 05:39 | 47.53074 | 8.46947 | 2734 ft | 146 kts | 137° |
| 2026-02-22 05:39 | 47.52328 | 8.47929 | 2527 ft | 146 kts | 138° |
| 2026-02-22 05:39 | 47.51589 | 8.48952 | 2309 ft | 145 kts | 136° |
| 2026-02-22 05:40 | 47.50866 | 8.49983 | 2065 ft | 144 kts | 136° |
| 2026-02-22 05:40 | 47.50119 | 8.50967 | 1864 ft | 144 kts | 140° |
| 2026-02-22 05:40 | 47.49384 | 8.51958 | 1764 ft | 144 kts | 135° |
| 2026-02-22 05:40 | 47.48663 | 8.52987 | 1571 ft | 144 kts | 138° |
| 2026-02-22 05:41 | 47.47930 | 8.53978 | 1408 ft | 141 kts | 137° |
| 2026-02-22 05:41 | 47.47293 | 8.54851 | 1399 ft | 102 kts | 137° |
| 2026-02-22 05:41 | 47.46931 | 8.55346 | 1401 ft | 58 kts | 137° |
| 2026-02-22 05:41 | 47.46742 | 8.55601 | 1403 ft | 28 kts | 141° |
| 2026-02-22 05:42 | 47.46560 | 8.55831 | 1399 ft | 38 kts | 140° |
| 2026-02-22 05:42 | 47.46353 | 8.55964 | 1404 ft | 10 kts | 168° |
| 2026-02-22 05:42 | 47.46279 | 8.55981 | 1397 ft | 14 kts | 186° |
| 2026-02-22 05:43 | 47.46227 | 8.55887 | 1398 ft | 13 kts | 275° |
| 2026-02-22 05:43 | 47.46238 | 8.55761 | 1403 ft | 12 kts | 277° |
| 2026-02-22 05:43 | 47.46246 | 8.55646 | 1397 ft | 11 kts | 275° |
| 2026-02-22 05:43 | 47.46248 | 8.55541 | 1401 ft | 10 kts | 257° |
| 2026-02-22 05:44 | 47.46201 | 8.55497 | 1399 ft | 7 kts | 187° |
| 2026-02-22 05:44 | 47.46180 | 8.55493 | 1398 ft | 1 kts | 188° |
| 2026-02-22 05:44 | 47.46177 | 8.55493 | 1399 ft | 0 kts | 187° |